• Join FlightAware (Why Join?)
  • Login
  • US Flag 
02:34PM EDT


 

Airport Tracker/Info


-or-


 

Live Flight TrackerFlight Track Log ✈ FDX1374 ✈ 23-May-2013 ✈ KLCK - KMEM

Flight Track Log - Related Links

Times and Time Zones

All times are in EDT time to prevent confusion due to time zone crossing. See the FDX1374 flight status page for this flight to view local times or setup timezone preferences in your user account.

Time Position Orientation Groundspeed Altitude Reporting Facility
EDT Latitude Longitude Course Direction KTS MPH feet Rate Location/Type
11:58PM 39.8175 -82.9217 360° North 165 190 1,600  Level Indianapolis Center
11:58PM 39.8175 -82.9217 51° Northeast 165 190 1,600 3,300 Level Indianapolis Center
11:59PM 39.8269 -82.9064 51° Northeast 170 196 2,600 3,300 Climbing Indianapolis Center
11:59PM 39.8269 -82.9064 51° Northeast 170 196 2,600 1,740 Level Indianapolis Center
11:59PM 39.8339 -82.8586 79° East 207 238 3,800 2,340 Climbing Indianapolis Center
12:00AM 39.7769 -82.8039 144° Southeast 281 323 6,600 2,880 Climbing Indianapolis Center
12:01AM 39.7239 -82.8736 225° Southwest 274 315 9,800 2,160 Climbing Indianapolis Center
12:02AM 39.6764 -82.9519 232° Southwest 274 315 11,100 2,400 Climbing Indianapolis Center
12:08AM 39.2150 -83.5650 232° Southwest 439 505 26,900 2,520 Climbing FlightAware
12:09AM 39.1560 -83.6430 226° Southwest 447 514 28,100 2,040 Climbing FlightAware
12:10AM 39.0910 -83.7280 225° Southwest 444 511 29,800 1,380 Climbing FlightAware
12:10AM 39.0330 -83.8060 226° Southwest 443 510 30,100 240 Climbing FlightAware
12:11AM 38.9880 -83.8640 225° Southwest 443 510 30,100 420 Level FlightAware
12:12AM 38.9170 -83.9570 226° Southwest 442 509 30,700 360 Climbing FlightAware
12:12AM 38.8680 -84.0200 225° Southwest 442 509 30,700 2,160 Level FlightAware
12:13AM 38.8000 -84.1070 225° Southwest 441 507 33,600 2,160 Climbing FlightAware
12:14AM 38.7510 -84.1700 225° Southwest 441 507 33,600  Level FlightAware
12:15AM 38.6900 -84.2490 225° Southwest 441 507 33,600  Level FlightAware
12:15AM 38.6400 -84.3120 225° Southwest 441 507 33,600  Level FlightAware
12:16AM 38.5910 -84.3740 225° Southwest 441 507 33,600 360 Level FlightAware
12:17AM 38.5090 -84.4830 226° Southwest 433 498 34,100 240 Climbing FlightAware
12:17AM 38.4410 -84.5700 225° Southwest 434 499 34,000 -120 Descending FlightAware
12:18AM 38.3710 -84.6590 225° Southwest 435 501 34,000  Level FlightAware
12:19AM 38.3170 -84.7280 225° Southwest 437 503 34,000  Level FlightAware
12:20AM 38.2500 -84.8130 225° Southwest 439 505 34,000  Level FlightAware
12:20AM 38.1930 -84.8850 225° Southwest 440 506 34,000  Level FlightAware
12:21AM 38.1350 -84.9580 225° Southwest 441 507 34,000  Level FlightAware
12:22AM 38.0680 -85.0420 225° Southwest 442 509 34,000  Level FlightAware
12:22AM 38.0100 -85.1150 225° Southwest 442 509 34,000  Level FlightAware
12:23AM 37.9460 -85.1970 225° Southwest 441 507 34,000 60 Level FlightAware
12:24AM 37.8870 -85.2700 224° Southwest 441 507 34,100  Climbing FlightAware
12:24AM 37.8300 -85.3400 224° Southwest 439 505 34,000 -120 Descending FlightAware
12:25AM 37.7630 -85.4230 224° Southwest 439 505 34,000  Level FlightAware
12:26AM 37.7040 -85.4970 225° Southwest 440 506 34,000  Level FlightAware
12:27AM 37.6400 -85.5760 224° Southwest 441 507 34,000  Level FlightAware
12:27AM 37.5820 -85.6470 224° Southwest 441 507 34,000  Level FlightAware
12:28AM 37.5244 -85.7185 225° Southwest 441 507 34,000  Level FlightAware ADS-B
12:28AM 37.4790 -85.7740 224° Southwest 440 506 34,000 60 Level FlightAware ADS-B
12:29AM 37.4347 -85.8294 225° Southwest 439 505 34,100  Climbing FlightAware ADS-B
12:29AM 37.3876 -85.8864 224° Southwest 439 505 34,000 -120 Descending FlightAware ADS-B
12:30AM 37.3235 -85.9648 224° Southwest 440 506 34,000  Level FlightAware ADS-B
12:31AM 37.2580 -86.0450 224° Southwest 439 505 34,000  Level FlightAware
12:31AM 37.2440 -86.0606 222° Southwest 439 505 34,000  Level FlightAware ADS-B
12:32AM 37.1843 -86.1333 224° Southwest 439 505 34,000  Level FlightAware ADS-B
12:33AM 37.1163 -86.2167 224° Southwest 441 507 34,000  Level FlightAware ADS-B
12:33AM 37.0717 -86.2701 224° Southwest 441 507 34,000 60 Level FlightAware ADS-B
12:34AM 37.0265 -86.3252 224° Southwest 443 510 34,100  Climbing FlightAware ADS-B
12:34AM 36.9823 -86.3786 224° Southwest 443 510 34,000  Descending FlightAware ADS-B
12:35AM 36.9377 -86.4324 224° Southwest 442 509 34,100  Climbing FlightAware ADS-B
12:35AM 36.9206 -86.4565 228° Southwest 441 507 34,000 -120 Descending FlightAware ADS-B
12:35AM 36.8640 -86.5373 229° Southwest 438 504 34,000  Level FlightAware ADS-B
12:36AM 36.8243 -86.5973 230° Southwest 439 505 34,000  Level FlightAware ADS-B
12:36AM 36.7849 -86.6552 230° Southwest 439 505 34,000  Level FlightAware ADS-B
12:37AM 36.7409 -86.7216 230° Southwest 436 502 34,000  Level FlightAware ADS-B
12:37AM 36.7236 -86.7523 235° Southwest 433 498 34,000  Level FlightAware ADS-B
12:38AM 36.6850 -86.8380 241° Southwest 427 491 34,000  Level FlightAware
12:39AM 36.6480 -86.9290 243° Southwest 427 491 34,000  Level FlightAware
12:39AM 36.6100 -87.0260 244° Southwest 427 491 34,000  Level FlightAware
12:40AM 36.5740 -87.1120 242° Southwest 428 493 34,000  Level FlightAware
12:41AM 36.5330 -87.2150 244° Southwest 430 495 34,000  Level FlightAware
12:41AM 36.4990 -87.3020 244° Southwest 430 495 34,000  Level FlightAware
12:42AM 36.4630 -87.3900 243° Southwest 431 496 34,000 60 Level FlightAware
12:43AM 36.4220 -87.4900 243° Southwest 432 497 34,100  Climbing FlightAware
12:44AM 36.3860 -87.5780 243° Southwest 435 501 34,000  Descending FlightAware
12:44AM 36.3370 -87.6770 238° Southwest 438 504 34,100 60 Climbing FlightAware
12:45AM 36.2950 -87.7630 239° Southwest 437 503 34,100  Level FlightAware
12:46AM 36.2530 -87.8490 239° Southwest 438 504 34,100 -120 Level FlightAware
12:46AM 36.2100 -87.9390 239° Southwest 438 504 34,000 -60 Descending FlightAware
12:47AM 36.1540 -88.0560 239° Southwest 439 505 34,000  Level FlightAware
12:48AM 36.1180 -88.1290 239° Southwest 439 505 34,000  Level FlightAware
12:49AM 36.0830 -88.2020 239° Southwest 439 505 34,000  Level FlightAware
12:49AM 36.0230 -88.3230 239° Southwest 440 506 34,000  Level FlightAware
12:50AM 35.9790 -88.4130 239° Southwest 439 505 34,000  Level FlightAware
12:51AM 35.9420 -88.4850 238° Southwest 439 505 34,000  Level FlightAware
12:51AM 35.8900 -88.5940 240° Southwest 439 505 34,000  Level FlightAware
12:52AM 35.8530 -88.6660 238° Southwest 439 505 34,000  Level FlightAware
12:53AM 35.8160 -88.7380 238° Southwest 439 505 34,000  Level FlightAware
12:53AM 35.7800 -88.8100 238° Southwest 439 505 34,000  Level FlightAware
12:54AM 35.7340 -88.9010 238° Southwest 439 505 34,000  Level FlightAware
12:55AM 35.6970 -88.9730 238° Southwest 439 505 34,000  Level FlightAware
12:56AM 35.6610 -89.0450 238° Southwest 439 505 34,000  Level FlightAware
12:56AM 35.6240 -89.1170 238° Southwest 439 505 34,000  Level FlightAware
12:57AM 35.5880 -89.1890 238° Southwest 439 505 34,000  Level FlightAware
12:58AM 35.5420 -89.2790 238° Southwest 439 505 34,000  Level FlightAware
12:58AM 35.5050 -89.3510 238° Southwest 439 505 34,000  Level FlightAware
12:59AM 35.4690 -89.4230 238° Southwest 439 505 34,000  Level FlightAware
01:00AM 35.4230 -89.5130 238° Southwest 439 505 34,000  Level FlightAware
01:01AM 35.3860 -89.5840 237° Southwest 439 505 34,000 -18,840 Level FlightAware
01:01AM 35.2619 -89.6731 237° Southwest 344 396 10,200 -15,900 Descending Memphis Center
01:02AM 35.2081 -89.7419 226° Southwest 305 351 8,600 -1,800 Descending Memphis Center
01:03AM 35.1522 -89.8136 226° Southwest 292 336 6,700 -1,320 Descending Memphis Center
01:04AM 35.0919 -89.8672 216° Southwest 281 323 6,000 -960 Descending Memphis Center
01:05AM 35.0253 -89.8678 180° South 245 282 4,800 -1,620 Descending Memphis Center
01:06AM 34.9583 -89.8656 178° South 234 269 2,800 -1,380 Descending Memphis Center
01:07AM 34.9000 -89.8833 194° South 230 265 2,000 -420 Descending KMEM
01:08AM 34.8833 -89.9333 248° West 186 214 2,000  Level KMEM
01:09AM 34.9167 -89.9667 321° Northwest 161 185 2,000 -240 Level KMEM
01:10AM 34.9667 -89.9667 360° North 158 182 1,600 -540 Descending KMEM
01:11AM 35.0000 -89.9667 360° North 107 123 900 -720 Descending KMEM
01:13AM 35.0333 -89.9667 345° North  Level FlightAware Approximate
01:20AM 35.0424 -89.9767 345° North  Level Estimated
01:21AM 35.0424 -89.9767 345° North  Level Estimated
01:22AM 35.0424 -89.9767 345° North  Level Estimated
01:23AM 35.0424 -89.9767 345° North  Level Estimated
01:24AM 35.0424 -89.9767 345° North  Level Estimated
01:25AM 35.0424 -89.9767 345° North  Level Estimated
01:26AM 35.0424 -89.9767 345° North  Level Estimated
01:27AM 35.0424 -89.9767 345° North  Level Estimated
01:28AM 35.0424 -89.9767 345° North  Level Estimated
01:29AM 35.0424 -89.9767 345° North  Level Estimated
01:30AM 35.0424 -89.9767 345° North  Level Estimated